sensor_id;sensor_type;location;lat;lon;timestamp;P1;durP1;ratioP1;P2;durP2;ratioP2
52184;SDS011;38160;52.876;18.778;2023-04-03T15:30:00;7.70;;;5.10;;
52184;SDS011;38160;52.876;18.778;2023-04-03T15:32:40;8.60;;;4.40;;
52184;SDS011;38160;52.876;18.778;2023-04-03T15:35:20;6.30;;;4.10;;
52184;SDS011;38160;52.876;18.778;2023-04-03T15:38:22;6.20;;;3.70;;
52184;SDS011;38160;52.876;18.778;2023-04-03T15:41:04;7.50;;;4.30;;
52184;SDS011;38160;52.876;18.778;2023-04-03T15:43:42;6.40;;;3.90;;
52184;SDS011;38160;52.876;18.778;2023-04-03T15:46:19;8.40;;;5.50;;
52184;SDS011;38160;52.876;18.778;2023-04-03T15:48:56;7.20;;;4.10;;
52184;SDS011;38160;52.876;18.778;2023-04-03T15:52:10;6.90;;;3.80;;
52184;SDS011;38160;52.876;18.778;2023-04-03T15:54:47;6.70;;;4.10;;
52184;SDS011;38160;52.876;18.778;2023-04-03T15:57:26;6.80;;;4.90;;
52184;SDS011;38160;52.876;18.778;2023-04-03T16:00:08;7.30;;;3.90;;
52184;SDS011;38160;52.876;18.778;2023-04-03T16:02:50;9.20;;;4.60;;
52184;SDS011;38160;52.876;18.778;2023-04-03T16:05:29;8.90;;;4.30;;
52184;SDS011;38160;52.876;18.778;2023-04-03T16:08:16;6.20;;;3.80;;
52184;SDS011;38160;52.876;18.778;2023-04-03T16:11:09;7.20;;;4.30;;
52184;SDS011;38160;52.876;18.778;2023-04-03T16:13:59;8.20;;;4.40;;
52184;SDS011;38160;52.876;18.778;2023-04-03T16:16:35;6.80;;;4.50;;
52184;SDS011;38160;52.876;18.778;2023-04-03T16:19:12;5.70;;;4.00;;
52184;SDS011;38160;52.876;18.778;2023-04-03T16:21:48;7.40;;;4.40;;
52184;SDS011;38160;52.876;18.778;2023-04-03T16:24:25;6.20;;;3.70;;
52184;SDS011;38160;52.876;18.778;2023-04-03T16:27:02;7.20;;;4.10;;
52184;SDS011;38160;52.876;18.778;2023-04-03T16:34:03;6.20;;;4.10;;
52184;SDS011;38160;52.876;18.778;2023-04-03T16:36:39;6.90;;;4.60;;
52184;SDS011;38160;52.876;18.778;2023-04-03T16:39:15;9.40;;;4.90;;
52184;SDS011;38160;52.876;18.778;2023-04-03T16:45:13;8.60;;;4.70;;
52184;SDS011;38160;52.876;18.778;2023-04-03T16:47:50;7.90;;;4.30;;
52184;SDS011;38160;52.876;18.778;2023-04-03T16:50:26;10.00;;;6.80;;
52184;SDS011;38160;52.876;18.778;2023-04-03T16:53:04;6.00;;;3.80;;
52184;SDS011;38160;52.876;18.778;2023-04-03T16:55:44;12.50;;;5.90;;
52184;SDS011;38160;52.876;18.778;2023-04-03T16:58:24;12.70;;;4.20;;
52184;SDS011;38160;52.876;18.778;2023-04-03T17:01:13;6.10;;;3.80;;
52184;SDS011;38160;52.876;18.778;2023-04-03T17:03:55;7.30;;;3.70;;
52184;SDS011;38160;52.876;18.778;2023-04-03T17:06:32;9.70;;;5.50;;
52184;SDS011;38160;52.876;18.778;2023-04-03T17:09:08;6.60;;;4.40;;
52184;SDS011;38160;52.876;18.778;2023-04-03T17:11:44;6.70;;;4.30;;
52184;SDS011;38160;52.876;18.778;2023-04-03T17:14:21;7.60;;;4.70;;
52184;SDS011;38160;52.876;18.778;2023-04-03T17:17:00;7.40;;;4.80;;
52184;SDS011;38160;52.876;18.778;2023-04-03T17:19:38;9.10;;;6.10;;
52184;SDS011;38160;52.876;18.778;2023-04-03T17:25:17;11.60;;;7.50;;
52184;SDS011;38160;52.876;18.778;2023-04-03T17:27:53;9.80;;;6.40;;
52184;SDS011;38160;52.876;18.778;2023-04-03T17:30:33;10.40;;;5.90;;
52184;SDS011;38160;52.876;18.778;2023-04-03T17:33:15;7.40;;;5.30;;
52184;SDS011;38160;52.876;18.778;2023-04-03T17:35:59;7.80;;;5.20;;
52184;SDS011;38160;52.876;18.778;2023-04-03T17:38:39;7.70;;;4.30;;
52184;SDS011;38160;52.876;18.778;2023-04-03T17:41:24;8.50;;;4.80;;
52184;SDS011;38160;52.876;18.778;2023-04-03T17:47:28;6.90;;;4.70;;
52184;SDS011;38160;52.876;18.778;2023-04-03T17:50:05;8.20;;;4.90;;
52184;SDS011;38160;52.876;18.778;2023-04-03T17:52:54;7.60;;;4.60;;
52184;SDS011;38160;52.876;18.778;2023-04-03T17:55:30;9.90;;;5.20;;
52184;SDS011;38160;52.876;18.778;2023-04-03T17:58:15;8.50;;;5.00;;
52184;SDS011;38160;52.876;18.778;2023-04-03T18:05:57;9.60;;;5.10;;
52184;SDS011;38160;52.876;18.778;2023-04-03T18:08:36;8.50;;;5.20;;
52184;SDS011;38160;52.876;18.778;2023-04-03T18:17:52;7.90;;;5.50;;
52184;SDS011;38160;52.876;18.778;2023-04-03T18:20:30;9.40;;;5.30;;
52184;SDS011;38160;52.876;18.778;2023-04-03T18:23:06;9.00;;;5.30;;
52184;SDS011;38160;52.876;18.778;2023-04-03T18:25:43;10.00;;;5.70;;
52184;SDS011;38160;52.876;18.778;2023-04-03T18:28:23;9.30;;;5.80;;
52184;SDS011;38160;52.876;18.778;2023-04-03T18:31:18;9.30;;;5.60;;
52184;SDS011;38160;52.876;18.778;2023-04-03T18:34:44;10.00;;;6.40;;
52184;SDS011;38160;52.876;18.778;2023-04-03T18:38:11;12.40;;;6.00;;
52184;SDS011;38160;52.876;18.778;2023-04-03T18:40:48;8.30;;;5.90;;
52184;SDS011;38160;52.876;18.778;2023-04-03T18:43:42;10.80;;;6.00;;
52184;SDS011;38160;52.876;18.778;2023-04-03T18:46:29;9.80;;;6.30;;
52184;SDS011;38160;52.876;18.778;2023-04-03T18:57:08;10.00;;;5.90;;
52184;SDS011;38160;52.876;18.778;2023-04-03T19:00:35;10.00;;;6.30;;
52184;SDS011;38160;52.876;18.778;2023-04-03T19:20:21;10.30;;;6.60;;
52184;SDS011;38160;52.876;18.778;2023-04-03T19:22:57;10.30;;;6.40;;
52184;SDS011;38160;52.876;18.778;2023-04-03T19:25:36;9.30;;;6.30;;
52184;SDS011;38160;52.876;18.778;2023-04-03T19:28:13;9.60;;;6.20;;
52184;SDS011;38160;52.876;18.778;2023-04-03T19:31:19;12.80;;;6.10;;
52184;SDS011;38160;52.876;18.778;2023-04-03T19:38:21;12.50;;;6.60;;
52184;SDS011;38160;52.876;18.778;2023-04-03T19:41:04;12.20;;;6.90;;
52184;SDS011;38160;52.876;18.778;2023-04-03T19:53:42;11.60;;;6.80;;
52184;SDS011;38160;52.876;18.778;2023-04-03T19:56:38;9.70;;;5.90;;
52184;SDS011;38160;52.876;18.778;2023-04-03T19:59:14;11.50;;;6.10;;
52184;SDS011;38160;52.876;18.778;2023-04-03T20:01:50;11.30;;;6.60;;
52184;SDS011;38160;52.876;18.778;2023-04-03T20:04:26;11.80;;;6.80;;
52184;SDS011;38160;52.876;18.778;2023-04-03T20:13:35;10.20;;;6.10;;
52184;SDS011;38160;52.876;18.778;2023-04-03T20:16:24;8.90;;;5.90;;
52184;SDS011;38160;52.876;18.778;2023-04-03T20:23:08;11.40;;;6.20;;
52184;SDS011;38160;52.876;18.778;2023-04-03T20:26:19;9.90;;;6.30;;
52184;SDS011;38160;52.876;18.778;2023-04-03T20:29:15;12.60;;;7.10;;
52184;SDS011;38160;52.876;18.778;2023-04-03T20:32:19;12.30;;;6.80;;
52184;SDS011;38160;52.876;18.778;2023-04-03T20:35:56;10.10;;;6.40;;
52184;SDS011;38160;52.876;18.778;2023-04-03T20:42:18;12.20;;;5.80;;
52184;SDS011;38160;52.876;18.778;2023-04-03T20:44:57;11.10;;;6.50;;
52184;SDS011;38160;52.876;18.778;2023-04-03T20:47:51;8.70;;;6.00;;
52184;SDS011;38160;52.876;18.778;2023-04-03T20:56:41;9.90;;;6.50;;
52184;SDS011;38160;52.876;18.778;2023-04-03T20:59:21;11.70;;;6.70;;
52184;SDS011;38160;52.876;18.778;2023-04-03T21:02:00;9.20;;;6.50;;
52184;SDS011;38160;52.876;18.778;2023-04-03T21:04:46;9.20;;;5.50;;
52184;SDS011;38160;52.876;18.778;2023-04-03T21:20:11;10.80;;;6.20;;
52184;SDS011;38160;52.876;18.778;2023-04-03T21:23:15;10.10;;;5.80;;
52184;SDS011;38160;52.876;18.778;2023-04-03T21:26:34;13.50;;;6.30;;
52184;SDS011;38160;52.876;18.778;2023-04-03T21:29:17;10.30;;;5.70;;
52184;SDS011;38160;52.876;18.778;2023-04-03T21:31:56;10.30;;;6.50;;
52184;SDS011;38160;52.876;18.778;2023-04-03T21:38:32;11.70;;;6.00;;
52184;SDS011;38160;52.876;18.778;2023-04-03T21:41:23;11.10;;;6.70;;
52184;SDS011;38160;52.876;18.778;2023-04-03T21:47:36;11.40;;;6.60;;
52184;SDS011;38160;52.876;18.778;2023-04-03T21:54:06;11.40;;;6.90;;
52184;SDS011;38160;52.876;18.778;2023-04-03T21:57:18;10.00;;;6.60;;
52184;SDS011;38160;52.876;18.778;2023-04-03T21:59:56;12.60;;;7.00;;
52184;SDS011;38160;52.876;18.778;2023-04-03T22:02:33;9.10;;;6.20;;
52184;SDS011;38160;52.876;18.778;2023-04-03T22:11:46;12.40;;;7.80;;
52184;SDS011;38160;52.876;18.778;2023-04-03T22:14:24;13.00;;;7.30;;
52184;SDS011;38160;52.876;18.778;2023-04-03T22:17:00;10.80;;;6.80;;
52184;SDS011;38160;52.876;18.778;2023-04-03T22:19:39;10.80;;;7.20;;
52184;SDS011;38160;52.876;18.778;2023-04-03T22:22:36;9.70;;;6.60;;
52184;SDS011;38160;52.876;18.778;2023-04-03T22:25:57;10.20;;;6.80;;
52184;SDS011;38160;52.876;18.778;2023-04-03T22:28:39;11.90;;;6.60;;
52184;SDS011;38160;52.876;18.778;2023-04-03T22:31:31;10.40;;;6.20;;
52184;SDS011;38160;52.876;18.778;2023-04-03T22:34:08;10.10;;;6.10;;
52184;SDS011;38160;52.876;18.778;2023-04-03T22:36:48;14.00;;;6.10;;
52184;SDS011;38160;52.876;18.778;2023-04-03T22:43:11;11.10;;;6.60;;
52184;SDS011;38160;52.876;18.778;2023-04-03T22:46:01;8.40;;;7.00;;
52184;SDS011;38160;52.876;18.778;2023-04-03T22:48:40;10.10;;;5.50;;
52184;SDS011;38160;52.876;18.778;2023-04-03T22:51:25;10.80;;;5.80;;
52184;SDS011;38160;52.876;18.778;2023-04-03T22:57:36;10.00;;;6.00;;
52184;SDS011;38160;52.876;18.778;2023-04-03T23:00:14;10.60;;;5.70;;
52184;SDS011;38160;52.876;18.778;2023-04-03T23:02:55;9.50;;;5.40;;
52184;SDS011;38160;52.876;18.778;2023-04-03T23:06:00;7.90;;;4.60;;
52184;SDS011;38160;52.876;18.778;2023-04-03T23:08:39;11.20;;;5.30;;
52184;SDS011;38160;52.876;18.778;2023-04-03T23:11:19;9.00;;;5.10;;
52184;SDS011;38160;52.876;18.778;2023-04-03T23:16:42;10.90;;;5.10;;
52184;SDS011;38160;52.876;18.778;2023-04-03T23:22:23;9.50;;;5.80;;
52184;SDS011;38160;52.876;18.778;2023-04-03T23:25:32;10.10;;;6.00;;
52184;SDS011;38160;52.876;18.778;2023-04-03T23:28:31;9.80;;;5.90;;
52184;SDS011;38160;52.876;18.778;2023-04-03T23:31:57;12.00;;;6.20;;
52184;SDS011;38160;52.876;18.778;2023-04-03T23:34:54;9.80;;;6.20;;
52184;SDS011;38160;52.876;18.778;2023-04-03T23:37:46;11.10;;;6.50;;
52184;SDS011;38160;52.876;18.778;2023-04-03T23:41:08;13.80;;;7.40;;
52184;SDS011;38160;52.876;18.778;2023-04-03T23:43:58;10.80;;;6.10;;
52184;SDS011;38160;52.876;18.778;2023-04-03T23:46:45;8.90;;;6.30;;
52184;SDS011;38160;52.876;18.778;2023-04-03T23:49:29;10.30;;;6.30;;
52184;SDS011;38160;52.876;18.778;2023-04-03T23:52:06;11.60;;;7.00;;
52184;SDS011;38160;52.876;18.778;2023-04-03T23:54:42;11.10;;;6.40;;
52184;SDS011;38160;52.876;18.778;2023-04-03T23:57:38;9.70;;;6.80;;
